createdAt,value
2018-03-17T00:01:08.692Z,23.23
2018-03-17T00:03:37.062Z,21.03
2018-03-17T00:06:05.424Z,19.50
2018-03-17T00:08:34.594Z,23.70
2018-03-17T00:11:02.949Z,18.47
2018-03-17T00:13:31.780Z,21.23
2018-03-17T00:16:00.120Z,20.87
2018-03-17T00:18:28.689Z,19.00
2018-03-17T00:20:57.053Z,22.03
2018-03-17T00:23:25.392Z,21.17
2018-03-17T00:25:53.759Z,21.63
2018-03-17T00:28:22.112Z,20.80
2018-03-17T00:30:50.570Z,20.97
2018-03-17T00:33:19.320Z,27.43
2018-03-17T00:35:47.704Z,19.63
2018-03-17T00:38:16.228Z,21.60
2018-03-17T00:40:44.625Z,20.93
2018-03-17T00:43:12.996Z,17.70
2018-03-17T00:45:41.343Z,21.60
2018-03-17T00:48:10.047Z,25.15
2018-03-17T00:50:38.396Z,25.17
2018-03-17T00:53:06.790Z,20.30
2018-03-17T00:55:35.170Z,16.90
2018-03-17T00:58:03.515Z,20.47
2018-03-17T01:00:32.642Z,29.10
2018-03-17T01:03:00.796Z,20.60
2018-03-17T01:05:29.760Z,21.63
2018-03-17T01:07:58.398Z,19.73
2018-03-17T01:10:26.748Z,16.10
2018-03-17T01:12:55.870Z,19.43
2018-03-17T01:15:24.211Z,17.90
2018-03-17T01:17:53.336Z,18.07
2018-03-17T01:20:21.741Z,21.40
2018-03-17T01:22:50.135Z,18.43
2018-03-17T01:25:18.524Z,20.00
2018-03-17T01:27:46.956Z,15.50
2018-03-17T01:30:16.268Z,15.27
2018-03-17T01:32:44.607Z,15.77
2018-03-17T01:35:13.736Z,16.90
2018-03-17T01:37:42.871Z,14.43
2018-03-17T01:40:11.246Z,14.23
2018-03-17T01:42:39.637Z,13.73
2018-03-17T01:45:07.981Z,19.33
2018-03-17T01:47:36.355Z,14.43
2018-03-17T01:50:04.056Z,19.20
2018-03-17T01:52:33.223Z,16.63
2018-03-17T01:55:01.573Z,14.17
2018-03-17T01:57:30.429Z,14.30
2018-03-17T01:59:59.546Z,18.70
2018-03-17T02:02:27.898Z,15.93
2018-03-17T02:04:57.477Z,13.87
2018-03-17T02:07:26.589Z,22.67
2018-03-17T02:09:55.017Z,16.87
2018-03-17T02:12:23.377Z,14.80
2018-03-17T02:14:51.748Z,13.20
2018-03-17T02:17:20.870Z,18.83
2018-03-17T02:19:49.223Z,14.20
2018-03-17T02:22:18.367Z,15.70
2018-03-17T02:24:46.910Z,13.37
2018-03-17T02:27:15.553Z,15.88
2018-03-17T02:29:44.189Z,12.85
2018-03-17T02:32:12.943Z,14.43
2018-03-17T02:34:42.071Z,16.00
2018-03-17T02:37:10.627Z,15.20
2018-03-17T02:39:39.762Z,18.33
2018-03-17T02:42:09.156Z,18.27
2018-03-17T02:44:37.513Z,18.27
2018-03-17T02:47:05.865Z,13.43
2018-03-17T02:49:35.006Z,19.80
2018-03-17T02:52:03.373Z,15.03
2018-03-17T02:54:31.729Z,18.60
2018-03-17T02:57:00.868Z,15.53
2018-03-17T02:59:29.213Z,16.37
2018-03-17T03:01:58.345Z,14.70
2018-03-17T03:04:26.703Z,19.00
2018-03-17T03:06:55.066Z,15.30
2018-03-17T03:09:23.438Z,18.20
2018-03-17T03:11:52.540Z,18.30
2018-03-17T03:14:20.904Z,15.20
2018-03-17T03:16:50.022Z,13.87
2018-03-17T03:19:18.371Z,12.53
2018-03-17T03:21:47.869Z,11.60
2018-03-17T03:24:16.224Z,11.20
2018-03-17T03:26:44.597Z,11.90
2018-03-17T03:29:12.957Z,11.00
2018-03-17T03:31:41.312Z,14.40
2018-03-17T03:34:09.693Z,15.40
2018-03-17T03:36:38.083Z,12.20
2018-03-17T03:39:06.452Z,11.63
2018-03-17T03:41:34.850Z,12.80
2018-03-17T03:44:04.123Z,10.60
2018-03-17T03:46:32.484Z,10.50
2018-03-17T03:49:01.108Z,10.77
2018-03-17T03:51:29.473Z,11.70
2018-03-17T03:53:57.815Z,9.27
2018-03-17T03:56:27.182Z,12.20
2018-03-17T03:58:56.313Z,10.43
2018-03-17T04:01:24.960Z,10.88
2018-03-17T04:03:53.348Z,14.67
2018-03-17T04:06:21.955Z,13.90
2018-03-17T04:08:50.760Z,16.43
2018-03-17T04:11:19.399Z,14.50
2018-03-17T04:13:48.026Z,11.73
2018-03-17T04:16:16.667Z,14.18
2018-03-17T04:18:45.996Z,14.33
2018-03-17T04:21:14.945Z,13.10
2018-03-17T04:23:43.316Z,13.20
2018-03-17T04:26:11.661Z,12.60
2018-03-17T04:28:40.431Z,12.50
2018-03-17T04:31:09.546Z,11.13
2018-03-17T04:33:37.900Z,13.27
2018-03-17T04:36:06.552Z,14.15
2018-03-17T04:38:34.902Z,13.83
2018-03-17T04:41:03.258Z,9.43
2018-03-17T04:43:31.646Z,14.37
2018-03-17T04:46:00.017Z,13.60
2018-03-17T04:48:29.253Z,9.77
2018-03-17T04:50:57.791Z,13.17
2018-03-17T04:53:26.411Z,12.98
2018-03-17T04:55:54.773Z,15.20
2018-03-17T04:58:23.169Z,15.50
2018-03-17T05:00:52.572Z,15.88
2018-03-17T05:03:21.046Z,15.97
2018-03-17T05:05:50.467Z,15.52
2018-03-17T05:08:19.094Z,15.85
2018-03-17T05:10:47.737Z,16.52
2018-03-17T05:13:16.408Z,12.40
2018-03-17T05:15:44.893Z,17.40
2018-03-17T05:18:13.524Z,16.48
2018-03-17T05:20:42.758Z,14.30
2018-03-17T05:23:11.115Z,14.97
2018-03-17T05:25:39.778Z,9.77
2018-03-17T05:28:08.881Z,12.40
2018-03-17T05:30:37.512Z,17.73
2018-03-17T05:33:06.905Z,14.00
2018-03-17T05:35:35.289Z,15.73
2018-03-17T05:38:04.692Z,14.95
2018-03-17T05:40:33.147Z,14.82
2018-03-17T05:43:01.784Z,14.38
2018-03-17T05:45:30.408Z,11.95
2018-03-17T05:47:59.045Z,14.87
2018-03-17T05:50:27.700Z,13.02
2018-03-17T05:52:57.091Z,14.00
2018-03-17T05:55:25.710Z,15.30
2018-03-17T05:57:54.639Z,14.73
2018-03-17T06:00:23.271Z,18.02
2018-03-17T06:02:52.690Z,17.00
2018-03-17T06:05:21.334Z,11.17
2018-03-17T06:07:49.691Z,13.63
2018-03-17T06:10:18.316Z,15.65
2018-03-17T06:12:46.697Z,12.03
2018-03-17T06:15:16.082Z,14.73
2018-03-17T06:17:44.757Z,10.95
2018-03-17T06:20:13.426Z,11.10
2018-03-17T06:22:42.074Z,10.88
2018-03-17T06:25:10.713Z,13.02
2018-03-17T06:27:39.354Z,13.75
2018-03-17T06:30:07.983Z,12.27
2018-03-17T06:32:36.686Z,14.05
2018-03-17T06:35:06.116Z,15.30
2018-03-17T06:37:34.814Z,13.55
2018-03-17T06:40:03.446Z,13.68
2018-03-17T06:42:32.096Z,13.93
2018-03-17T06:45:00.765Z,11.65
2018-03-17T06:47:29.418Z,14.23
2018-03-17T06:49:58.723Z,12.52
2018-03-17T06:52:27.497Z,15.02
2018-03-17T06:54:56.901Z,15.43
2018-03-17T06:57:26.316Z,11.85
2018-03-17T06:59:54.940Z,11.02
2018-03-17T07:02:23.584Z,11.32
2018-03-17T07:04:52.239Z,12.20
2018-03-17T07:07:21.674Z,11.95
2018-03-17T07:09:50.321Z,10.80
2018-03-17T07:12:19.035Z,9.68
2018-03-17T07:14:47.618Z,13.82
2018-03-17T07:17:16.885Z,8.90
2018-03-17T07:19:46.424Z,8.82
2018-03-17T07:22:15.182Z,12.93
2018-03-17T07:24:43.839Z,10.43
2018-03-17T07:27:12.484Z,11.35
2018-03-17T07:29:41.141Z,10.48
2018-03-17T07:32:10.528Z,11.30
2018-03-17T07:34:39.202Z,12.05
2018-03-17T07:37:07.847Z,11.43
2018-03-17T07:39:36.478Z,13.55
2018-03-17T07:42:05.125Z,11.95
2018-03-17T07:44:33.745Z,9.90
2018-03-17T07:47:02.376Z,8.13
2018-03-17T07:49:31.150Z,11.05
2018-03-17T07:52:00.584Z,10.60
2018-03-17T07:54:29.220Z,5.18
2018-03-17T07:56:57.876Z,9.75
2018-03-17T07:59:26.496Z,10.23
2018-03-17T08:01:55.944Z,11.93
2018-03-17T08:04:24.592Z,9.88
2018-03-17T08:06:53.214Z,6.78
2018-03-17T08:09:21.850Z,11.38
2018-03-17T08:11:50.505Z,10.68
2018-03-17T08:14:19.156Z,9.50
2018-03-17T08:16:47.796Z,13.65
2018-03-17T08:19:16.694Z,12.25
2018-03-17T08:21:46.787Z,11.95
2018-03-17T08:24:16.173Z,12.07
2018-03-17T08:26:44.931Z,7.68
2018-03-17T08:29:13.569Z,10.95
2018-03-17T08:31:42.213Z,8.32
2018-03-17T08:34:10.927Z,12.52
2018-03-17T08:36:40.494Z,11.07
2018-03-17T08:39:09.577Z,11.52
2018-03-17T08:41:39.010Z,9.10
2018-03-17T08:44:07.656Z,9.80
2018-03-17T08:46:37.101Z,11.05
2018-03-17T08:49:05.743Z,12.18
2018-03-17T08:51:35.248Z,13.30
2018-03-17T08:54:04.693Z,13.45
2018-03-17T08:56:33.333Z,8.30
2018-03-17T08:59:02.757Z,11.68
2018-03-17T09:01:31.398Z,9.65
2018-03-17T09:04:00.087Z,11.45
2018-03-17T09:06:28.708Z,7.60
2018-03-17T09:08:57.471Z,8.35
2018-03-17T09:11:26.899Z,7.72
2018-03-17T09:13:55.594Z,10.75
2018-03-17T09:16:24.393Z,12.98
2018-03-17T09:18:53.315Z,7.95
2018-03-17T09:21:21.949Z,12.05
2018-03-17T09:23:50.584Z,11.25
2018-03-17T09:26:19.237Z,10.38
2018-03-17T09:28:47.876Z,5.50
2018-03-17T09:31:16.539Z,7.03
2018-03-17T09:33:47.009Z,7.72
2018-03-17T09:36:15.680Z,8.38
2018-03-17T09:38:45.086Z,10.63
2018-03-17T09:41:14.506Z,8.30
2018-03-17T09:43:43.131Z,11.85
2018-03-17T09:46:11.763Z,9.45
2018-03-17T09:48:41.187Z,9.30
2018-03-17T09:51:09.822Z,11.00
2018-03-17T09:53:38.472Z,11.90
2018-03-17T09:56:07.132Z,12.57
2018-03-17T09:58:35.795Z,10.93
2018-03-17T10:01:05.475Z,7.50
2018-03-17T10:03:34.128Z,12.40
2018-03-17T10:06:02.783Z,9.60
2018-03-17T10:08:31.406Z,10.68
2018-03-17T10:11:00.458Z,9.55
2018-03-17T10:13:29.199Z,10.82
2018-03-17T10:15:57.843Z,6.53
2018-03-17T10:18:27.246Z,5.25
2018-03-17T10:20:55.897Z,6.85
2018-03-17T10:23:25.566Z,10.60
2018-03-17T10:25:54.054Z,10.02
2018-03-17T10:28:22.697Z,9.52
2018-03-17T10:30:51.340Z,9.88
2018-03-17T10:33:20.276Z,6.97
2018-03-17T10:35:48.899Z,8.00
2018-03-17T10:38:17.519Z,5.85
2018-03-17T10:40:46.166Z,6.97
2018-03-17T10:43:14.618Z,10.52
2018-03-17T10:45:43.244Z,7.43
2018-03-17T10:48:11.921Z,8.50
2018-03-17T10:50:40.582Z,9.45
2018-03-17T10:53:09.203Z,13.57
2018-03-17T10:55:37.882Z,8.38
2018-03-17T10:58:06.325Z,8.15
2018-03-17T11:00:34.751Z,6.53
2018-03-17T11:03:04.163Z,10.00
2018-03-17T11:05:32.585Z,8.02
2018-03-17T11:08:01.025Z,6.80
2018-03-17T11:10:29.992Z,6.10
2018-03-17T11:12:58.654Z,6.75
2018-03-17T11:15:27.291Z,7.80
2018-03-17T11:17:56.716Z,8.15
2018-03-17T11:20:25.368Z,7.82
2018-03-17T11:22:54.781Z,6.62
2018-03-17T11:25:23.611Z,9.07
2018-03-17T11:27:52.260Z,8.02
2018-03-17T11:30:21.691Z,11.60
2018-03-17T11:32:50.697Z,6.60
2018-03-17T11:35:19.165Z,7.70
2018-03-17T11:37:48.926Z,8.88
2018-03-17T11:40:18.366Z,9.50
2018-03-17T11:42:47.064Z,9.05
2018-03-17T11:45:15.683Z,5.28
2018-03-17T11:47:44.334Z,9.95
2018-03-17T11:50:12.987Z,5.95
2018-03-17T11:52:41.639Z,10.00
2018-03-17T11:55:10.299Z,5.85
2018-03-17T11:57:38.930Z,7.45
2018-03-17T12:00:07.794Z,6.25
2018-03-17T12:02:36.451Z,9.55
2018-03-17T12:05:05.446Z,4.75
2018-03-17T12:07:34.139Z,6.18
2018-03-17T12:10:03.157Z,4.65
2018-03-17T12:12:31.786Z,6.03
2018-03-17T12:15:00.440Z,9.30
2018-03-17T12:17:29.860Z,6.43
2018-03-17T12:19:58.489Z,6.37
2018-03-17T12:22:27.138Z,10.35
2018-03-17T12:24:56.814Z,7.05
2018-03-17T12:27:25.516Z,5.32
2018-03-17T12:29:54.954Z,5.18
2018-03-17T12:32:23.600Z,4.50
2018-03-17T12:34:52.998Z,9.55
2018-03-17T12:37:21.625Z,5.75
2018-03-17T12:39:50.518Z,6.43
2018-03-17T12:42:19.260Z,4.65
2018-03-17T12:44:47.692Z,8.90
2018-03-17T12:47:16.331Z,6.05
2018-03-17T12:49:45.907Z,7.40
2018-03-17T12:52:14.531Z,5.65
2018-03-17T12:54:43.177Z,9.35
2018-03-17T12:57:11.840Z,6.05
2018-03-17T12:59:40.462Z,4.68
2018-03-17T13:02:09.096Z,8.27
2018-03-17T13:04:37.729Z,8.15
2018-03-17T13:07:07.111Z,4.80
2018-03-17T13:09:35.764Z,8.10
2018-03-17T13:12:04.378Z,5.60
2018-03-17T13:14:33.005Z,6.10
2018-03-17T13:17:02.398Z,8.65
2018-03-17T13:19:30.933Z,7.28
2018-03-17T13:21:59.556Z,7.07
2018-03-17T13:24:28.225Z,8.88
2018-03-17T13:27:07.914Z,5.87
2018-03-17T13:29:36.834Z,7.82
2018-03-17T13:32:04.781Z,4.43
2018-03-17T13:34:33.733Z,8.27
2018-03-17T13:37:13.542Z,7.05
2018-03-17T13:39:42.223Z,5.97
2018-03-17T13:42:10.840Z,5.82
2018-03-17T13:44:39.482Z,6.25
2018-03-17T13:47:08.254Z,7.43
2018-03-17T13:49:36.869Z,4.55
2018-03-17T13:52:05.508Z,6.85
2018-03-17T13:54:34.132Z,5.70
2018-03-17T13:57:02.779Z,7.55
2018-03-17T13:59:31.584Z,6.70
2018-03-17T14:02:00.226Z,5.03
2018-03-17T14:04:28.673Z,6.82
2018-03-17T14:06:57.305Z,10.50
2018-03-17T14:09:26.697Z,7.95
2018-03-17T14:11:56.097Z,10.15
2018-03-17T14:14:25.607Z,8.45
2018-03-17T14:16:55.849Z,5.85
2018-03-17T14:19:24.484Z,4.20
2018-03-17T14:21:53.453Z,4.75
2018-03-17T14:24:22.065Z,5.80
2018-03-17T14:26:50.714Z,6.62
2018-03-17T14:29:19.357Z,7.50
2018-03-17T14:31:48.743Z,7.25
2018-03-17T14:34:18.152Z,10.00
2018-03-17T14:36:47.663Z,8.45
2018-03-17T14:39:17.078Z,7.50
2018-03-17T14:41:45.716Z,6.45
2018-03-17T14:44:15.133Z,7.03
2018-03-17T14:46:43.826Z,5.43
2018-03-17T14:49:12.596Z,9.15
2018-03-17T14:51:41.255Z,4.45
2018-03-17T14:54:09.883Z,6.20
2018-03-17T14:56:39.276Z,10.95
2018-03-17T14:59:07.920Z,6.40
2018-03-17T15:01:36.535Z,9.27
2018-03-17T15:04:05.220Z,10.18
2018-03-17T15:06:35.092Z,8.73
2018-03-17T15:09:03.186Z,7.28
2018-03-17T15:11:31.816Z,8.13
2018-03-17T15:14:01.254Z,13.13
2018-03-17T15:16:29.903Z,8.75
2018-03-17T15:18:59.307Z,9.25
2018-03-17T15:21:28.716Z,9.48
2018-03-17T15:23:57.382Z,8.27
2018-03-17T15:26:26.812Z,10.65
2018-03-17T15:28:56.442Z,6.15
2018-03-17T15:31:25.060Z,7.97
2018-03-17T15:33:53.777Z,7.28
2018-03-17T15:36:22.867Z,8.63
2018-03-17T15:38:52.278Z,9.10
2018-03-17T15:41:21.692Z,8.45
2018-03-17T15:43:51.079Z,5.53
2018-03-17T15:46:20.576Z,14.20
2018-03-17T15:48:49.260Z,7.43
2018-03-17T15:51:18.701Z,9.43
2018-03-17T15:53:47.343Z,7.32
2018-03-17T15:56:16.093Z,7.07
2018-03-17T15:58:44.838Z,11.20
2018-03-17T16:01:13.458Z,8.88
2018-03-17T16:03:42.097Z,8.20
2018-03-17T16:06:11.510Z,7.18
2018-03-17T16:08:40.141Z,8.73
2018-03-17T16:11:08.767Z,11.90
2018-03-17T16:13:38.633Z,6.95
2018-03-17T16:16:08.078Z,9.48
2018-03-17T16:18:37.537Z,10.05
2018-03-17T16:21:06.169Z,5.57
2018-03-17T16:23:35.606Z,7.82
2018-03-17T16:26:04.597Z,10.30
2018-03-17T16:28:33.210Z,8.63
2018-03-17T16:31:01.862Z,7.28
2018-03-17T16:33:30.211Z,8.13
2018-03-17T16:35:59.603Z,9.15
2018-03-17T16:38:29.020Z,5.95
2018-03-17T16:40:58.432Z,8.25
2018-03-17T16:43:28.012Z,6.60
2018-03-17T16:45:57.471Z,10.90
2018-03-17T16:48:25.957Z,9.07
2018-03-17T16:50:54.610Z,8.73
2018-03-17T16:53:23.263Z,8.52
2018-03-17T16:55:51.732Z,7.18
2018-03-17T16:58:20.432Z,11.88
2018-03-17T17:00:49.849Z,6.50
2018-03-17T17:03:19.297Z,6.35
2018-03-17T17:05:48.846Z,9.20
2018-03-17T17:08:17.467Z,6.22
2018-03-17T17:10:45.940Z,9.13
2018-03-17T17:13:14.561Z,9.32
2018-03-17T17:15:43.188Z,9.75
2018-03-17T17:18:12.686Z,9.00
2018-03-17T17:20:42.073Z,7.43
2018-03-17T17:23:10.714Z,8.18
2018-03-17T17:25:39.602Z,6.55
2018-03-17T17:28:08.226Z,7.40
2018-03-17T17:30:36.838Z,8.35
2018-03-17T17:33:06.250Z,8.40
2018-03-17T17:35:34.856Z,7.75
2018-03-17T17:38:03.473Z,4.55
2018-03-17T17:40:32.193Z,9.80
2018-03-17T17:43:01.611Z,6.50
2018-03-17T17:45:30.272Z,8.85
2018-03-17T17:47:59.704Z,6.85
2018-03-17T17:50:28.337Z,8.55
2018-03-17T17:52:56.956Z,6.10
2018-03-17T17:55:25.894Z,11.07
2018-03-17T17:57:54.557Z,6.22
2018-03-17T18:00:23.185Z,6.72
2018-03-17T18:02:51.824Z,7.93
2018-03-17T18:05:20.432Z,5.40
2018-03-17T18:07:49.070Z,9.38
2018-03-17T18:10:18.501Z,5.78
2018-03-17T18:12:47.126Z,8.77
2018-03-17T18:15:15.736Z,7.78
2018-03-17T18:17:45.164Z,7.68
2018-03-17T18:20:13.782Z,7.37
2018-03-17T18:22:42.407Z,7.57
2018-03-17T18:25:11.869Z,3.55
2018-03-17T18:27:40.489Z,5.30
2018-03-17T18:30:09.893Z,5.55
2018-03-17T18:32:38.711Z,9.27
2018-03-17T18:35:07.337Z,8.05
2018-03-17T18:37:36.137Z,4.90
2018-03-17T18:40:04.805Z,6.85
2018-03-17T18:42:33.471Z,7.95
2018-03-17T18:45:02.087Z,8.50
2018-03-17T18:47:31.497Z,9.70
2018-03-17T18:50:00.901Z,6.72
2018-03-17T18:52:30.285Z,8.25
2018-03-17T18:54:58.975Z,5.45
2018-03-17T18:57:27.624Z,9.27
2018-03-17T18:59:56.256Z,9.20
2018-03-17T19:02:25.671Z,9.95
2018-03-17T19:04:55.078Z,5.65
2018-03-17T19:07:23.708Z,8.70
2018-03-17T19:09:52.710Z,8.10
2018-03-17T19:12:21.376Z,10.55
2018-03-17T19:14:49.989Z,5.93
2018-03-17T19:17:18.697Z,8.10
2018-03-17T19:19:48.204Z,8.68
2018-03-17T19:22:17.666Z,5.03
2018-03-17T19:24:46.307Z,8.18
2018-03-17T19:27:14.932Z,8.68
2018-03-17T19:29:43.579Z,11.60
2018-03-17T19:32:12.244Z,6.45
2018-03-17T19:34:41.676Z,9.20
2018-03-17T19:37:10.302Z,6.78
2018-03-17T19:39:38.976Z,8.68
2018-03-17T19:42:07.609Z,10.50
2018-03-17T19:44:37.055Z,4.78
2018-03-17T19:47:05.712Z,5.65
2018-03-17T19:49:34.375Z,6.10
2018-03-17T19:52:03.170Z,9.77
2018-03-17T19:54:32.781Z,9.73
2018-03-17T19:57:01.396Z,10.43
2018-03-17T19:59:30.023Z,6.32
2018-03-17T20:01:59.468Z,10.45
2018-03-17T20:04:28.120Z,7.15
2018-03-17T20:06:57.509Z,8.07
2018-03-17T20:09:26.166Z,10.90
2018-03-17T20:11:54.795Z,6.05
2018-03-17T20:14:24.187Z,5.60
2018-03-17T20:16:53.609Z,7.82
2018-03-17T20:19:22.233Z,7.22
2018-03-17T20:21:50.681Z,7.03
2018-03-17T20:24:19.324Z,8.90
2018-03-17T20:26:47.954Z,8.75
2018-03-17T20:29:16.564Z,6.05
2018-03-17T20:31:45.976Z,7.55
2018-03-17T20:34:14.596Z,5.70
2018-03-17T20:36:43.981Z,9.73
2018-03-17T20:39:12.661Z,7.07
2018-03-17T20:41:41.365Z,6.53
2018-03-17T20:44:11.069Z,5.32
2018-03-17T20:46:40.659Z,6.68
2018-03-17T20:49:09.307Z,8.10
2018-03-17T20:51:37.952Z,9.48
2018-03-17T20:54:07.390Z,9.13
2018-03-17T20:56:36.015Z,8.32
2018-03-17T20:59:04.713Z,8.38
2018-03-17T21:01:33.337Z,4.65
2018-03-17T21:04:01.962Z,11.35
2018-03-17T21:06:30.589Z,5.97
2018-03-17T21:09:00.013Z,9.38
2018-03-17T21:11:28.659Z,7.87
2018-03-17T21:13:58.045Z,5.87
2018-03-17T21:16:26.716Z,6.95
2018-03-17T21:18:55.373Z,8.07
2018-03-17T21:21:23.884Z,8.20
2018-03-17T21:23:52.508Z,4.95
2018-03-17T21:26:21.920Z,6.70
2018-03-17T21:28:50.540Z,9.07
2018-03-17T21:31:19.992Z,10.80
2018-03-17T21:33:49.429Z,5.43
2018-03-17T21:36:17.772Z,6.18
2018-03-17T21:38:46.764Z,7.40
2018-03-17T21:41:16.169Z,7.35
2018-03-17T21:43:45.583Z,6.57
2018-03-17T21:46:14.989Z,5.80
2018-03-17T21:48:44.383Z,5.20
2018-03-17T21:51:13.053Z,5.70
2018-03-17T21:53:42.488Z,6.62
2018-03-17T21:56:11.246Z,7.20
2018-03-17T21:58:39.863Z,6.40
2018-03-17T22:01:08.173Z,5.57
2018-03-17T22:03:36.840Z,7.97
2018-03-17T22:06:04.810Z,9.50
2018-03-17T22:08:33.476Z,7.80
2018-03-17T22:11:02.163Z,10.30
2018-03-17T22:13:31.126Z,10.45
2018-03-17T22:16:00.557Z,6.82
2018-03-17T22:18:29.204Z,9.27
2018-03-17T22:20:57.821Z,6.10
2018-03-17T22:23:26.444Z,6.35
2018-03-17T22:25:55.069Z,4.25
2018-03-17T22:28:23.694Z,5.65
2018-03-17T22:30:52.369Z,5.93
2018-03-17T22:33:21.013Z,8.57
2018-03-17T22:35:49.661Z,8.48
2018-03-17T22:38:18.300Z,9.73
2018-03-17T22:40:47.717Z,8.48
2018-03-17T22:43:16.427Z,8.57
2018-03-17T22:45:45.122Z,4.78
2018-03-17T22:48:13.757Z,5.30
2018-03-17T22:50:43.185Z,6.47
2018-03-17T22:53:11.894Z,12.25
2018-03-17T22:55:40.537Z,8.27
2018-03-17T22:58:09.218Z,6.97
2018-03-17T23:00:37.492Z,6.93
2018-03-17T23:03:06.542Z,4.62
2018-03-17T23:05:35.168Z,6.87
2018-03-17T23:08:03.496Z,9.45
2018-03-17T23:10:32.120Z,9.05
2018-03-17T23:13:00.770Z,9.73
2018-03-17T23:15:29.434Z,11.48
2018-03-17T23:17:58.066Z,10.75
2018-03-17T23:20:27.500Z,10.45
2018-03-17T23:22:56.111Z,3.28
2018-03-17T23:25:24.757Z,9.00
2018-03-17T23:27:53.373Z,9.32
2018-03-17T23:30:21.884Z,8.93
2018-03-17T23:32:50.549Z,8.25
2018-03-17T23:35:19.211Z,10.00
2018-03-17T23:37:48.080Z,10.40
2018-03-17T23:40:16.535Z,8.40
2018-03-17T23:42:45.748Z,8.07
2018-03-17T23:45:14.196Z,10.05
2018-03-17T23:47:43.629Z,11.70
2018-03-17T23:50:12.800Z,4.95
2018-03-17T23:52:41.239Z,9.98
2018-03-17T23:55:09.685Z,11.00
2018-03-17T23:57:39.081Z,7.72
